createdAt,value
2017-12-26T00:01:24.215Z,6.82
2017-12-26T00:03:50.899Z,6.80
2017-12-26T00:06:17.542Z,6.45
2017-12-26T00:08:44.211Z,3.60
2017-12-26T00:11:10.878Z,6.72
2017-12-26T00:13:37.536Z,6.62
2017-12-26T00:16:04.312Z,6.47
2017-12-26T00:18:31.044Z,6.53
2017-12-26T00:20:57.689Z,6.40
2017-12-26T00:23:24.351Z,6.90
2017-12-26T00:25:51.031Z,5.57
2017-12-26T00:28:17.703Z,6.90
2017-12-26T00:30:44.361Z,6.70
2017-12-26T00:33:11.024Z,3.70
2017-12-26T00:35:37.682Z,6.68
2017-12-26T00:38:04.326Z,7.03
2017-12-26T00:40:31.112Z,6.90
2017-12-26T00:42:57.775Z,7.15
2017-12-26T00:45:24.511Z,3.60
2017-12-26T00:47:51.167Z,6.28
2017-12-26T00:50:17.829Z,6.80
2017-12-26T00:52:44.495Z,7.00
2017-12-26T00:55:11.160Z,7.55
2017-12-26T00:57:37.839Z,7.03
2017-12-26T01:00:04.507Z,6.80
2017-12-26T01:02:31.168Z,4.55
2017-12-26T01:04:57.829Z,7.00
2017-12-26T01:07:24.476Z,6.93
2017-12-26T01:09:51.162Z,3.70
2017-12-26T01:12:17.826Z,7.53
2017-12-26T01:14:44.495Z,7.20
2017-12-26T01:17:11.182Z,7.00
2017-12-26T01:19:37.852Z,6.57
2017-12-26T01:22:04.552Z,7.10
2017-12-26T01:24:31.220Z,7.15
2017-12-26T01:26:57.873Z,5.00
2017-12-26T01:29:24.532Z,7.20
2017-12-26T01:31:51.250Z,7.10
2017-12-26T01:34:17.982Z,7.70
2017-12-26T01:36:44.646Z,7.32
2017-12-26T01:39:11.319Z,3.90
2017-12-26T01:41:37.980Z,6.90
2017-12-26T01:44:04.643Z,6.07
2017-12-26T01:46:31.308Z,6.80
2017-12-26T01:48:57.975Z,7.05
2017-12-26T01:51:24.639Z,7.00
2017-12-26T01:53:51.291Z,6.90
2017-12-26T01:56:17.975Z,3.90
2017-12-26T01:58:44.668Z,6.95
2017-12-26T02:01:11.311Z,6.70
2017-12-26T02:03:37.963Z,7.07
2017-12-26T02:06:04.608Z,7.00
2017-12-26T02:08:31.279Z,7.10
2017-12-26T02:10:57.943Z,6.80
2017-12-26T02:13:24.608Z,7.40
2017-12-26T02:15:51.323Z,6.60
2017-12-26T02:18:17.972Z,7.55
2017-12-26T02:20:44.734Z,7.30
2017-12-26T02:23:11.473Z,6.70
2017-12-26T02:25:38.116Z,6.97
2017-12-26T02:28:04.799Z,7.35
2017-12-26T02:30:31.439Z,3.70
2017-12-26T02:32:58.083Z,6.90
2017-12-26T02:35:24.750Z,7.30
2017-12-26T02:37:51.405Z,3.75
2017-12-26T02:40:18.066Z,7.10
2017-12-26T02:42:44.727Z,6.70
2017-12-26T02:45:11.370Z,6.80
2017-12-26T02:47:38.029Z,4.45
2017-12-26T02:50:04.696Z,6.90
2017-12-26T02:52:31.346Z,6.60
2017-12-26T02:54:58.098Z,3.90
2017-12-26T02:57:24.774Z,6.50
2017-12-26T02:59:51.424Z,6.60
2017-12-26T03:02:18.085Z,7.18
2017-12-26T03:04:44.746Z,6.55
2017-12-26T03:07:11.400Z,6.80
2017-12-26T03:09:38.088Z,7.03
2017-12-26T03:12:04.747Z,4.00
2017-12-26T03:14:31.421Z,6.80
2017-12-26T03:16:58.094Z,6.90
2017-12-26T03:19:24.735Z,7.20
2017-12-26T03:21:51.379Z,6.70
2017-12-26T03:24:18.043Z,7.05
2017-12-26T03:26:44.691Z,7.30
2017-12-26T03:29:11.362Z,6.90
2017-12-26T03:31:38.020Z,7.35
2017-12-26T03:34:04.659Z,7.00
2017-12-26T03:36:31.369Z,7.30
2017-12-26T03:38:58.122Z,6.95
2017-12-26T03:41:24.782Z,7.30
2017-12-26T03:43:51.485Z,6.90
2017-12-26T03:46:18.145Z,4.10
2017-12-26T03:48:44.811Z,7.15
2017-12-26T03:51:12.371Z,7.37
2017-12-26T03:53:39.086Z,6.93
2017-12-26T03:56:05.736Z,5.37
2017-12-26T03:58:32.411Z,7.35
2017-12-26T04:00:59.075Z,6.97
2017-12-26T04:03:25.739Z,7.20
2017-12-26T04:05:52.406Z,7.00
2017-12-26T04:08:19.084Z,7.20
2017-12-26T04:10:45.766Z,7.00
2017-12-26T04:13:12.503Z,6.97
2017-12-26T04:15:39.183Z,7.25
2017-12-26T04:18:05.890Z,7.28
2017-12-26T04:20:32.570Z,6.95
2017-12-26T04:22:59.223Z,7.00
2017-12-26T04:25:25.889Z,6.95
2017-12-26T04:27:52.651Z,7.32
2017-12-26T04:30:19.326Z,11.73
2017-12-26T04:32:45.984Z,6.90
2017-12-26T04:35:12.654Z,6.05
2017-12-26T04:37:39.308Z,6.82
2017-12-26T04:40:05.964Z,7.30
2017-12-26T04:42:32.630Z,6.85
2017-12-26T04:44:59.303Z,7.20
2017-12-26T04:47:25.962Z,7.28
2017-12-26T04:49:52.708Z,7.30
2017-12-26T04:52:19.380Z,4.00
2017-12-26T04:54:46.040Z,6.90
2017-12-26T04:57:12.731Z,7.07
2017-12-26T04:59:39.421Z,7.15
2017-12-26T05:02:06.119Z,5.32
2017-12-26T05:04:32.782Z,6.97
2017-12-26T05:06:59.450Z,7.00
2017-12-26T05:09:26.138Z,4.00
2017-12-26T05:11:52.824Z,6.90
2017-12-26T05:14:19.478Z,7.15
2017-12-26T05:16:46.131Z,7.12
2017-12-26T05:19:12.784Z,6.50
2017-12-26T05:21:39.534Z,7.00
2017-12-26T05:24:06.200Z,7.10
2017-12-26T05:26:32.874Z,7.37
2017-12-26T05:28:59.559Z,7.10
2017-12-26T05:31:26.235Z,6.93
2017-12-26T05:33:52.875Z,6.80
2017-12-26T05:36:19.542Z,3.70
2017-12-26T05:38:46.310Z,7.10
2017-12-26T05:41:12.983Z,6.80
2017-12-26T05:43:39.647Z,6.87
2017-12-26T05:46:06.314Z,7.00
2017-12-26T05:48:33.055Z,7.30
2017-12-26T05:50:59.713Z,7.30
2017-12-26T05:53:26.375Z,3.90
2017-12-26T05:55:53.029Z,7.00
2017-12-26T05:58:19.706Z,6.97
2017-12-26T06:00:46.352Z,6.80
2017-12-26T06:03:13.026Z,6.80
2017-12-26T06:05:39.675Z,6.72
2017-12-26T06:08:06.346Z,7.40
2017-12-26T06:10:33.008Z,3.80
2017-12-26T06:12:59.669Z,6.60
2017-12-26T06:15:26.362Z,7.05
2017-12-26T06:17:53.015Z,6.80
2017-12-26T06:20:19.684Z,6.80
2017-12-26T06:22:46.359Z,7.22
2017-12-26T06:25:13.055Z,7.85
2017-12-26T06:27:39.695Z,6.55
2017-12-26T06:30:06.356Z,6.95
2017-12-26T06:32:33.014Z,6.22
2017-12-26T06:34:59.675Z,6.90
2017-12-26T06:37:26.357Z,6.50
2017-12-26T06:39:53.092Z,6.80
2017-12-26T06:42:19.859Z,7.18
2017-12-26T06:44:46.536Z,7.35
2017-12-26T06:47:13.215Z,6.90
2017-12-26T06:49:39.971Z,5.00
2017-12-26T06:52:06.715Z,6.80
2017-12-26T06:54:33.368Z,7.00
2017-12-26T06:57:00.064Z,7.00
2017-12-26T06:59:26.720Z,7.00
2017-12-26T07:01:53.407Z,6.93
2017-12-26T07:04:20.067Z,7.43
2017-12-26T07:06:46.736Z,3.97
2017-12-26T07:09:13.396Z,6.97
2017-12-26T07:11:40.059Z,6.60
2017-12-26T07:14:06.707Z,6.80
2017-12-26T07:16:33.372Z,6.90
2017-12-26T07:19:00.146Z,6.90
2017-12-26T07:21:32.636Z,6.85
2017-12-26T07:23:59.281Z,4.28
2017-12-26T07:26:26.015Z,6.80
2017-12-26T07:28:52.735Z,6.97
2017-12-26T07:31:19.401Z,6.80
2017-12-26T07:33:46.049Z,7.00
2017-12-26T07:36:12.779Z,3.80
2017-12-26T07:38:39.428Z,6.70
2017-12-26T07:41:06.087Z,5.03
2017-12-26T07:43:32.748Z,6.62
2017-12-26T07:45:59.408Z,6.55
2017-12-26T07:48:26.070Z,6.70
2017-12-26T07:50:52.755Z,6.95
2017-12-26T07:53:19.407Z,6.78
2017-12-26T07:55:46.072Z,6.75
2017-12-26T07:58:12.732Z,6.62
2017-12-26T08:00:39.373Z,3.60
2017-12-26T08:03:06.094Z,6.80
2017-12-26T08:05:32.773Z,6.70
2017-12-26T08:07:59.423Z,6.60
2017-12-26T08:10:26.101Z,6.40
2017-12-26T08:12:52.766Z,6.20
2017-12-26T08:15:19.434Z,7.15
2017-12-26T08:17:46.128Z,6.78
2017-12-26T08:20:12.777Z,6.05
2017-12-26T08:22:39.450Z,6.45
2017-12-26T08:25:06.126Z,6.28
2017-12-26T08:27:32.764Z,6.15
2017-12-26T08:29:59.449Z,6.25
2017-12-26T08:32:26.087Z,6.50
2017-12-26T08:34:52.750Z,6.40
2017-12-26T08:37:19.408Z,6.40
2017-12-26T08:39:46.050Z,6.70
2017-12-26T08:42:12.716Z,5.90
2017-12-26T08:44:39.360Z,6.50
2017-12-26T08:47:06.014Z,6.30
2017-12-26T08:49:32.671Z,6.20
2017-12-26T08:51:59.336Z,6.00
2017-12-26T08:54:25.980Z,3.30
2017-12-26T08:56:52.678Z,6.35
2017-12-26T08:59:19.412Z,3.23
2017-12-26T09:01:46.078Z,5.60
2017-12-26T09:04:12.757Z,5.80
2017-12-26T09:06:39.530Z,5.80
2017-12-26T09:09:06.195Z,5.80
2017-12-26T09:11:32.867Z,5.55
2017-12-26T09:13:59.537Z,5.40
2017-12-26T09:16:26.217Z,5.68
2017-12-26T09:18:52.876Z,5.70
2017-12-26T09:21:19.524Z,5.50
2017-12-26T09:23:46.194Z,5.40
2017-12-26T09:26:12.836Z,5.70
2017-12-26T09:28:39.488Z,5.70
2017-12-26T09:31:06.171Z,5.40
2017-12-26T09:33:32.831Z,5.40
2017-12-26T09:35:59.476Z,5.35
2017-12-26T09:38:26.144Z,5.10
2017-12-26T09:40:52.804Z,5.20
2017-12-26T09:43:19.471Z,5.10
2017-12-26T09:45:46.156Z,5.10
2017-12-26T09:48:12.824Z,5.05
2017-12-26T09:50:39.508Z,4.70
2017-12-26T09:53:06.156Z,4.90
2017-12-26T09:55:33.681Z,4.90
2017-12-26T09:58:00.389Z,4.78
2017-12-26T10:00:27.048Z,4.70
2017-12-26T10:02:53.696Z,4.80
2017-12-26T10:05:20.410Z,3.65
2017-12-26T10:07:47.082Z,4.80
2017-12-26T10:10:13.732Z,4.40
2017-12-26T10:12:40.413Z,4.90
2017-12-26T10:15:07.057Z,4.90
2017-12-26T10:17:34.015Z,4.80
2017-12-26T10:20:00.756Z,4.60
2017-12-26T10:22:27.408Z,4.45
2017-12-26T10:24:54.252Z,4.50
2017-12-26T10:27:20.908Z,4.40
2017-12-26T10:29:47.561Z,4.47
2017-12-26T10:32:14.249Z,2.20
2017-12-26T10:34:40.926Z,4.20
2017-12-26T10:37:07.575Z,3.70
2017-12-26T10:39:34.263Z,4.00
2017-12-26T10:42:00.931Z,3.90
2017-12-26T10:44:27.602Z,3.85
2017-12-26T10:46:54.456Z,3.80
2017-12-26T10:49:21.135Z,3.65
2017-12-26T10:51:47.819Z,3.50
2017-12-26T10:54:14.487Z,1.70
2017-12-26T10:56:41.153Z,3.60
2017-12-26T10:59:07.904Z,1.70
2017-12-26T11:01:34.557Z,3.10
2017-12-26T11:04:01.231Z,3.50
2017-12-26T11:06:27.876Z,3.53
2017-12-26T11:08:54.552Z,3.12
2017-12-26T11:11:21.304Z,3.33
2017-12-26T11:13:47.971Z,3.33
2017-12-26T11:16:14.647Z,3.20
2017-12-26T11:18:41.296Z,3.40
2017-12-26T11:21:07.958Z,3.33
2017-12-26T11:23:34.626Z,3.30
2017-12-26T11:26:01.280Z,2.72
2017-12-26T11:28:27.943Z,3.20
2017-12-26T11:30:54.596Z,3.10
2017-12-26T11:33:21.354Z,3.10
2017-12-26T11:35:48.020Z,3.25
2017-12-26T11:38:14.694Z,3.20
2017-12-26T11:40:41.341Z,3.20
2017-12-26T11:43:08.010Z,3.50
2017-12-26T11:45:34.683Z,3.50
2017-12-26T11:48:01.341Z,3.30
2017-12-26T11:50:27.997Z,2.33
2017-12-26T11:52:54.676Z,3.10
2017-12-26T11:55:21.340Z,2.80
2017-12-26T11:57:48.044Z,2.80
2017-12-26T12:00:14.692Z,2.70
2017-12-26T12:02:41.355Z,2.90
2017-12-26T12:05:08.069Z,2.60
2017-12-26T12:07:34.829Z,2.85
2017-12-26T12:10:01.491Z,2.80
2017-12-26T12:12:28.162Z,2.70
2017-12-26T12:14:54.825Z,2.70
2017-12-26T12:17:21.494Z,2.60
2017-12-26T12:19:48.156Z,2.62
2017-12-26T12:22:14.835Z,2.35
2017-12-26T12:24:41.498Z,2.50
2017-12-26T12:27:08.164Z,2.45
2017-12-26T12:29:34.895Z,1.10
2017-12-26T12:32:01.548Z,2.35
2017-12-26T12:34:28.215Z,2.20
2017-12-26T12:36:54.871Z,2.60
2017-12-26T12:39:21.529Z,2.50
2017-12-26T12:41:48.190Z,2.50
2017-12-26T12:44:14.876Z,2.70
2017-12-26T12:46:41.520Z,2.60
2017-12-26T12:49:08.186Z,2.50
2017-12-26T12:51:34.862Z,2.60
2017-12-26T12:54:01.538Z,2.40
2017-12-26T12:56:28.203Z,1.55
2017-12-26T12:58:54.871Z,2.42
2017-12-26T13:01:21.531Z,2.40
2017-12-26T13:03:48.172Z,2.50
2017-12-26T13:06:14.877Z,2.50
2017-12-26T13:08:41.557Z,2.40
2017-12-26T13:11:08.205Z,2.60
2017-12-26T13:13:34.892Z,2.40
2017-12-26T13:16:01.558Z,2.40
2017-12-26T13:18:28.207Z,2.40
2017-12-26T13:20:54.851Z,2.30
2017-12-26T13:23:21.544Z,2.40
2017-12-26T13:25:48.292Z,2.40
2017-12-26T13:28:14.959Z,2.28
2017-12-26T13:30:41.685Z,2.30
2017-12-26T13:33:08.350Z,2.58
2017-12-26T13:35:35.052Z,1.00
2017-12-26T13:38:01.701Z,2.50
2017-12-26T13:40:28.360Z,2.33
2017-12-26T13:42:55.113Z,2.30
2017-12-26T13:45:21.764Z,2.50
2017-12-26T13:47:48.416Z,2.50
2017-12-26T13:50:15.097Z,2.50
2017-12-26T13:52:41.740Z,2.50
2017-12-26T13:55:08.399Z,2.70
2017-12-26T13:57:35.074Z,2.50
2017-12-26T14:00:01.748Z,2.70
2017-12-26T14:02:28.389Z,2.87
2017-12-26T14:04:55.151Z,2.80
2017-12-26T14:07:21.810Z,2.80
2017-12-26T14:09:48.507Z,1.85
2017-12-26T14:12:15.161Z,3.10
2017-12-26T14:14:41.848Z,3.00
2017-12-26T14:17:08.522Z,3.30
2017-12-26T14:19:35.160Z,3.40
2017-12-26T14:22:01.822Z,3.20
2017-12-26T14:24:28.509Z,3.60
2017-12-26T14:26:55.178Z,3.60
2017-12-26T14:29:21.871Z,3.50
2017-12-26T14:31:48.531Z,3.50
2017-12-26T14:34:15.178Z,3.58
2017-12-26T14:36:41.847Z,3.20
2017-12-26T14:39:08.500Z,3.60
2017-12-26T14:41:35.171Z,3.70
2017-12-26T14:44:01.816Z,1.80
2017-12-26T14:46:28.487Z,3.60
2017-12-26T14:48:55.152Z,3.50
2017-12-26T14:51:21.801Z,3.55
2017-12-26T14:53:48.466Z,3.53
2017-12-26T14:56:15.210Z,3.40
2017-12-26T14:58:41.861Z,3.50
2017-12-26T15:01:08.522Z,3.58
2017-12-26T15:03:35.186Z,3.80
2017-12-26T15:06:01.853Z,3.70
2017-12-26T15:08:28.512Z,3.60
2017-12-26T15:10:55.190Z,3.60
2017-12-26T15:13:21.841Z,3.80
2017-12-26T15:15:48.488Z,1.85
2017-12-26T15:18:15.153Z,3.60
2017-12-26T15:20:41.814Z,3.50
2017-12-26T15:23:08.470Z,3.60
2017-12-26T15:25:35.126Z,3.80
2017-12-26T15:28:01.786Z,3.60
2017-12-26T15:30:28.470Z,3.72
2017-12-26T15:32:55.168Z,3.90
2017-12-26T15:35:21.909Z,3.50
2017-12-26T15:37:48.560Z,3.95
2017-12-26T15:40:15.223Z,3.80
2017-12-26T15:42:41.895Z,1.98
2017-12-26T15:45:08.570Z,3.70
2017-12-26T15:47:35.235Z,3.60
2017-12-26T15:50:01.954Z,3.80
2017-12-26T15:52:28.634Z,4.10
2017-12-26T15:54:55.287Z,4.22
2017-12-26T15:57:21.953Z,4.50
2017-12-26T15:59:48.622Z,4.10
2017-12-26T16:02:15.286Z,4.30
2017-12-26T16:04:41.958Z,4.22
2017-12-26T16:07:08.619Z,4.10
2017-12-26T16:09:35.280Z,4.20
2017-12-26T16:12:02.019Z,4.20
2017-12-26T16:14:28.683Z,4.00
2017-12-26T16:16:55.398Z,4.28
2017-12-26T16:19:22.059Z,4.25
2017-12-26T16:21:48.728Z,2.30
2017-12-26T16:24:15.398Z,4.00
2017-12-26T16:26:42.146Z,4.07
2017-12-26T16:29:08.840Z,3.90
2017-12-26T16:31:35.489Z,4.32
2017-12-26T16:34:02.132Z,4.20
2017-12-26T16:36:28.803Z,3.95
2017-12-26T16:38:55.566Z,4.07
2017-12-26T16:41:22.242Z,4.40
2017-12-26T16:43:48.907Z,4.60
2017-12-26T16:46:15.682Z,4.20
2017-12-26T16:48:42.341Z,2.20
2017-12-26T16:51:09.063Z,4.20
2017-12-26T16:53:35.734Z,4.37
2017-12-26T16:56:02.376Z,3.05
2017-12-26T16:58:29.080Z,4.20
2017-12-26T17:00:55.809Z,4.18
2017-12-26T17:03:22.460Z,3.92
2017-12-26T17:05:49.123Z,4.30
2017-12-26T17:08:15.764Z,4.50
2017-12-26T17:10:42.419Z,4.12
2017-12-26T17:13:09.097Z,4.40
2017-12-26T17:15:35.752Z,4.55
2017-12-26T17:18:02.495Z,4.45
2017-12-26T17:20:29.160Z,4.43
2017-12-26T17:22:55.822Z,4.30
2017-12-26T17:25:22.485Z,4.20
2017-12-26T17:27:49.213Z,4.20
2017-12-26T17:30:15.889Z,4.20
2017-12-26T17:32:42.646Z,4.28
2017-12-26T17:35:09.293Z,2.20
2017-12-26T17:37:35.954Z,4.20
2017-12-26T17:40:02.631Z,4.10
2017-12-26T17:42:29.408Z,4.10
2017-12-26T17:44:56.070Z,4.30
2017-12-26T17:47:22.743Z,4.05
2017-12-26T17:49:49.395Z,4.10
2017-12-26T17:52:16.066Z,4.30
2017-12-26T17:54:42.723Z,4.40
2017-12-26T17:57:09.414Z,4.80
2017-12-26T17:59:36.098Z,4.70
2017-12-26T18:02:02.811Z,4.37
2017-12-26T18:04:29.452Z,4.80
2017-12-26T18:06:56.116Z,4.90
2017-12-26T18:09:22.758Z,4.45
2017-12-26T18:11:49.413Z,4.60
2017-12-26T18:14:16.092Z,15.05
2017-12-26T18:16:42.745Z,4.43
2017-12-26T18:19:09.401Z,4.07
2017-12-26T18:21:36.110Z,4.60
2017-12-26T18:24:02.780Z,4.62
2017-12-26T18:26:29.426Z,4.40
2017-12-26T18:31:22.353Z,4.70
2017-12-26T18:33:49.010Z,4.70
2017-12-26T18:36:15.686Z,4.60
2017-12-26T18:38:42.351Z,4.75
2017-12-26T18:41:09.009Z,4.60
2017-12-26T18:43:35.676Z,4.60
2017-12-26T18:46:02.320Z,4.50
2017-12-26T18:48:28.965Z,2.20
2017-12-26T18:50:55.653Z,4.20
2017-12-26T18:53:22.350Z,4.50
2017-12-26T18:55:49.087Z,4.70
2017-12-26T18:58:15.789Z,4.50
2017-12-26T19:00:42.455Z,4.60
2017-12-26T19:03:09.122Z,4.50
2017-12-26T19:05:35.783Z,4.70
2017-12-26T19:08:02.459Z,4.65
2017-12-26T19:10:29.145Z,4.70
2017-12-26T19:12:55.783Z,4.75
2017-12-26T19:15:22.450Z,2.45
2017-12-26T19:17:49.112Z,4.40
2017-12-26T19:20:15.786Z,4.40
2017-12-26T19:22:42.488Z,4.60
2017-12-26T19:25:09.127Z,4.40
2017-12-26T19:27:35.765Z,4.30
2017-12-26T19:30:02.422Z,4.60
2017-12-26T19:32:29.063Z,4.60
2017-12-26T19:34:55.816Z,4.62
2017-12-26T19:37:22.463Z,4.70
2017-12-26T19:39:49.121Z,4.70
2017-12-26T19:42:15.839Z,2.40
2017-12-26T19:44:42.493Z,4.60
2017-12-26T19:47:09.177Z,3.03
2017-12-26T19:49:35.837Z,4.80
2017-12-26T19:52:02.502Z,4.60
2017-12-26T19:54:29.190Z,4.50
2017-12-26T19:56:56.078Z,4.87
2017-12-26T19:59:22.781Z,4.75
2017-12-26T20:01:49.463Z,4.72
2017-12-26T20:04:16.107Z,2.30
2017-12-26T20:06:42.809Z,4.57
2017-12-26T20:09:09.467Z,3.62
2017-12-26T20:11:36.135Z,4.70
2017-12-26T20:14:02.781Z,5.10
2017-12-26T20:16:29.461Z,4.70
2017-12-26T20:18:56.605Z,5.10
2017-12-26T20:21:23.258Z,4.60
2017-12-26T20:23:49.919Z,3.25
2017-12-26T20:26:16.587Z,4.50
2017-12-26T20:28:57.788Z,5.20
2017-12-26T20:31:24.455Z,5.25
2017-12-26T20:33:51.118Z,5.00
2017-12-26T20:36:17.787Z,5.20
2017-12-26T20:38:44.454Z,4.93
2017-12-26T20:41:11.118Z,5.32
2017-12-26T20:43:37.794Z,3.87
2017-12-26T20:46:04.532Z,5.20
2017-12-26T20:48:31.213Z,5.30
2017-12-26T20:50:57.910Z,2.80
2017-12-26T20:53:24.663Z,5.32
2017-12-26T20:55:51.330Z,5.03
2017-12-26T20:58:18.063Z,5.20
2017-12-26T21:00:44.746Z,5.18
2017-12-26T21:03:11.392Z,4.40
2017-12-26T21:05:38.032Z,5.30
2017-12-26T21:08:04.694Z,5.40
2017-12-26T21:10:31.339Z,5.30
2017-12-26T21:12:58.094Z,5.40
2017-12-26T21:15:24.753Z,5.55
2017-12-26T21:17:51.410Z,5.70
2017-12-26T21:20:18.083Z,5.60
2017-12-26T21:22:44.750Z,4.72
2017-12-26T21:25:11.407Z,5.55
2017-12-26T21:27:38.071Z,5.30
2017-12-26T21:30:04.744Z,4.50
2017-12-26T21:32:31.402Z,5.70
2017-12-26T21:34:58.078Z,5.40
2017-12-26T21:37:24.734Z,5.30
2017-12-26T21:39:51.411Z,5.62
2017-12-26T21:42:18.156Z,5.60
2017-12-26T21:44:44.812Z,5.80
2017-12-26T21:47:11.546Z,5.55
2017-12-26T21:49:38.210Z,3.80
2017-12-26T21:52:04.924Z,5.40
2017-12-26T21:54:31.564Z,5.50
2017-12-26T21:56:58.225Z,5.40
2017-12-26T21:59:24.872Z,5.60
2017-12-26T22:01:51.530Z,5.70
2017-12-26T22:04:18.192Z,5.75
2017-12-26T22:06:44.887Z,5.62
2017-12-26T22:09:11.527Z,3.17
2017-12-26T22:11:38.184Z,5.22
2017-12-26T22:14:04.891Z,5.57
2017-12-26T22:16:31.547Z,5.50
2017-12-26T22:18:58.215Z,5.43
2017-12-26T22:21:24.891Z,2.83
2017-12-26T22:23:51.536Z,5.57
2017-12-26T22:26:18.200Z,5.30
2017-12-26T22:28:44.890Z,5.50
2017-12-26T22:31:11.527Z,5.72
2017-12-26T22:33:38.214Z,5.40
2017-12-26T22:36:04.884Z,5.40
2017-12-26T22:38:31.524Z,5.70
2017-12-26T22:40:58.198Z,5.40
2017-12-26T22:43:24.952Z,5.53
2017-12-26T22:45:51.599Z,5.50
2017-12-26T22:48:18.265Z,5.60
2017-12-26T22:50:45.072Z,6.05
2017-12-26T22:53:11.751Z,5.80
2017-12-26T22:55:38.403Z,5.75
2017-12-26T22:58:05.091Z,5.80
2017-12-26T23:00:31.832Z,3.10
2017-12-26T23:02:58.470Z,5.50
2017-12-26T23:05:25.158Z,5.62
2017-12-26T23:07:51.803Z,5.50
2017-12-26T23:10:18.455Z,5.78
2017-12-26T23:12:45.235Z,5.75
2017-12-26T23:15:29.713Z,5.90
2017-12-26T23:18:02.239Z,3.20
2017-12-26T23:20:34.647Z,8.05
2017-12-26T23:23:07.194Z,5.87
2017-12-26T23:25:39.705Z,5.93
2017-12-26T23:28:12.069Z,6.03
2017-12-26T23:30:44.543Z,6.12
2017-12-26T23:33:16.962Z,5.97
2017-12-26T23:35:49.361Z,3.00
2017-12-26T23:38:21.912Z,5.60
2017-12-26T23:40:54.347Z,5.70
2017-12-26T23:43:26.883Z,3.10
2017-12-26T23:45:59.402Z,5.50
2017-12-26T23:48:31.954Z,5.60
2017-12-26T23:51:04.510Z,5.90
2017-12-26T23:53:37.048Z,5.70
2017-12-26T23:56:09.615Z,5.62
2017-12-26T23:58:41.998Z,5.75
